Time;durP1;ratioP1;P1;durP2;ratioP2;P2;SDS_P1;SDS_P2;PMS_P1;PMS_P2;Temp;Humidity;BMP_temperature;BMP_pressure;BME280_temperature;BME280_humidity;BME280_pressure;Samples;Min_cycle;Max_cycle;Signal;HPM_P1;HPM_P2
2023/06/18 00:01:27;;;;;;;14.35;9.27;;;;;;;;;;5073618;28;20315;-71
2023/06/18 00:03:52;;;;;;;12.73;8.95;;;;;;;;;;5084977;28;20286;-71
2023/06/18 00:06:18;;;;;;;13.75;9.35;;;;;;;;;;5074692;28;20292;-71
2023/06/18 00:08:44;;;;;;;14.60;8.90;;;;;;;;;;5084047;28;20184;-71
2023/06/18 00:11:09;;;;;;;11.80;9.55;;;;;;;;;;5082612;28;20249;-71
2023/06/18 00:13:35;;;;;;;14.43;9.48;;;;;;;;;;5069295;28;20510;-71
2023/06/18 00:16:00;;;;;;;15.43;9.20;;;;;;;;;;5069354;28;20567;-71
2023/06/18 00:18:26;;;;;;;15.38;10.30;;;;;;;;;;5078758;28;20285;-71
2023/06/18 00:20:51;;;;;;;14.02;9.25;;;;;;;;;;5084269;28;20553;-71
2023/06/18 00:23:17;;;;;;;14.77;8.98;;;;;;;;;;5078628;28;20193;-71
2023/06/18 00:25:42;;;;;;;13.82;9.98;;;;;;;;;;5072845;28;20241;-71
2023/06/18 00:28:08;;;;;;;16.27;10.77;;;;;;;;;;5081242;28;20203;-71
2023/06/18 00:30:33;;;;;;;14.07;10.40;;;;;;;;;;5083491;28;20193;-71
2023/06/18 00:32:59;;;;;;;14.85;10.32;;;;;;;;;;5082478;28;20203;-71
2023/06/18 00:35:24;;;;;;;13.52;10.32;;;;;;;;;;5085727;28;20628;-71
2023/06/18 00:37:50;;;;;;;13.38;10.00;;;;;;;;;;5077435;28;20242;-71
2023/06/18 00:40:15;;;;;;;14.55;10.25;;;;;;;;;;5073655;28;20220;-71
2023/06/18 00:42:41;;;;;;;15.90;10.80;;;;;;;;;;5084387;28;20237;-71
2023/06/18 00:45:12;;;;;;;14.95;10.80;;;;;;;;;;5073217;28;20226;-71
2023/06/18 00:47:42;;;;;;;15.57;10.07;;;;;;;;;;5065306;28;20188;-71
2023/06/18 00:50:08;;;;;;;17.40;9.90;;;;;;;;;;5086375;28;20780;-71
2023/06/18 00:52:36;;;;;;;15.45;10.95;;;;;;;;;;5088855;28;20267;-71
2023/06/18 00:55:02;;;;;;;18.38;10.73;;;;;;;;;;5085921;28;20614;-71
2023/06/18 00:57:29;;;;;;;14.65;10.60;;;;;;;;;;5078279;28;20232;-71
2023/06/18 00:59:55;;;;;;;14.18;10.38;;;;;;;;;;5081106;28;20184;-72
2023/06/18 01:02:26;;;;;;;13.70;10.85;;;;;;;;;;5067697;28;20579;-72
2023/06/18 01:04:55;;;;;;;14.85;11.25;;;;;;;;;;5086359;28;20212;-72
2023/06/18 01:07:24;;;;;;;16.55;11.48;;;;;;;;;;5080904;28;20177;-72
2023/06/18 01:09:53;;;;;;;14.98;11.25;;;;;;;;;;5068180;28;20566;-72
2023/06/18 01:12:27;;;;;;;15.85;11.50;;;;;;;;;;5069025;28;20184;-72
2023/06/18 01:14:56;;;;;;;19.25;11.80;;;;;;;;;;5081218;28;20191;-71
2023/06/18 01:17:23;;;;;;;15.88;11.63;;;;;;;;;;5086173;28;20176;-72
2023/06/18 01:19:57;;;;;;;16.75;12.65;;;;;;;;;;5088231;28;20191;-71
2023/06/18 01:22:57;;;;;;;15.85;11.98;;;;;;;;;;5085558;28;20263;-71
2023/06/18 01:25:26;;;;;;;15.80;12.18;;;;;;;;;;5070601;28;20296;-71
2023/06/18 01:27:53;;;;;;;16.77;12.63;;;;;;;;;;5085594;28;20192;-71
2023/06/18 01:30:20;;;;;;;19.27;11.95;;;;;;;;;;5069876;28;20245;-72
2023/06/18 01:32:46;;;;;;;16.70;12.63;;;;;;;;;;5067952;28;20176;-71
2023/06/18 01:35:15;;;;;;;17.17;11.60;;;;;;;;;;5071682;28;20185;-71
2023/06/18 01:37:55;;;;;;;17.52;12.32;;;;;;;;;;5084501;28;20585;-71
2023/06/18 01:40:48;;;;;;;19.15;12.25;;;;;;;;;;5087546;28;20257;-71
2023/06/18 01:43:22;;;;;;;19.50;11.95;;;;;;;;;;5079239;28;20196;-71
2023/06/18 01:45:53;;;;;;;17.95;13.15;;;;;;;;;;5085069;28;20251;-71
2023/06/18 01:48:21;;;;;;;16.00;12.63;;;;;;;;;;5094108;28;20639;-71
2023/06/18 01:50:48;;;;;;;16.55;12.90;;;;;;;;;;5095294;28;20611;-72
2023/06/18 01:53:16;;;;;;;17.38;12.43;;;;;;;;;;5093306;28;20180;-71
2023/06/18 01:55:44;;;;;;;17.65;13.10;;;;;;;;;;5087523;28;20306;-71
2023/06/18 01:58:13;;;;;;;17.98;13.77;;;;;;;;;;5093432;28;20552;-71
2023/06/18 02:00:38;;;;;;;21.08;13.52;;;;;;;;;;5081676;28;20208;-71
2023/06/18 02:03:04;;;;;;;16.63;12.93;;;;;;;;;;5086003;28;20194;-72
2023/06/18 02:05:30;;;;;;;16.05;12.63;;;;;;;;;;5082175;28;20204;-71
2023/06/18 02:07:55;;;;;;;17.23;13.02;;;;;;;;;;5087215;28;20192;-72
2023/06/18 02:10:20;;;;;;;18.90;12.68;;;;;;;;;;5086767;28;20660;-71
2023/06/18 02:12:47;;;;;;;19.35;14.20;;;;;;;;;;5084361;28;20203;-71
2023/06/18 02:15:12;;;;;;;16.73;13.63;;;;;;;;;;5086151;28;20187;-72
2023/06/18 02:17:38;;;;;;;18.77;13.80;;;;;;;;;;5088649;28;20557;-71
2023/06/18 02:20:04;;;;;;;19.30;13.55;;;;;;;;;;5090474;28;20199;-71
2023/06/18 02:22:29;;;;;;;16.98;13.55;;;;;;;;;;5089638;28;20282;-70
2023/06/18 02:24:55;;;;;;;16.55;13.05;;;;;;;;;;5086719;28;20292;-71
2023/06/18 02:27:20;;;;;;;17.92;13.68;;;;;;;;;;5094973;28;20270;-72
2023/06/18 02:29:46;;;;;;;20.98;14.27;;;;;;;;;;5090498;28;20187;-72
2023/06/18 02:32:11;;;;;;;20.02;14.18;;;;;;;;;;5078239;28;20195;-72
2023/06/18 02:34:37;;;;;;;20.33;14.45;;;;;;;;;;5084616;28;20192;-72
2023/06/18 02:37:03;;;;;;;20.58;14.80;;;;;;;;;;5085467;28;20184;-72
2023/06/18 02:39:28;;;;;;;17.85;14.23;;;;;;;;;;5084380;28;20228;-71
2023/06/18 02:41:54;;;;;;;19.08;14.35;;;;;;;;;;5079481;28;20191;-71
2023/06/18 02:44:20;;;;;;;21.88;14.77;;;;;;;;;;5094294;28;20245;-71
2023/06/18 02:46:45;;;;;;;22.55;16.58;;;;;;;;;;5075305;28;20734;-71
2023/06/18 02:49:10;;;;;;;23.77;15.40;;;;;;;;;;5093586;28;20260;-71
2023/06/18 02:51:37;;;;;;;21.05;15.80;;;;;;;;;;5074657;28;20185;-71
2023/06/18 02:54:02;;;;;;;21.83;15.25;;;;;;;;;;5094019;28;20180;-71
2023/06/18 02:56:28;;;;;;;21.27;14.18;;;;;;;;;;5084490;28;20572;-71
2023/06/18 02:58:56;;;;;;;19.48;15.52;;;;;;;;;;5079737;28;20203;-71
2023/06/18 03:01:24;;;;;;;21.88;15.52;;;;;;;;;;5090318;28;20646;-71
2023/06/18 03:03:50;;;;;;;22.67;16.00;;;;;;;;;;5084956;28;20184;-71
2023/06/18 03:06:16;;;;;;;19.75;15.55;;;;;;;;;;5090613;28;20219;-71
2023/06/18 03:08:41;;;;;;;22.98;16.77;;;;;;;;;;5091201;28;20668;-71
2023/06/18 03:11:07;;;;;;;23.77;16.75;;;;;;;;;;5089790;28;20188;-71
2023/06/18 03:13:32;;;;;;;26.05;15.90;;;;;;;;;;5073264;28;20719;-71
2023/06/18 03:15:58;;;;;;;23.70;16.52;;;;;;;;;;5077413;28;20180;-71
2023/06/18 03:18:23;;;;;;;23.67;16.67;;;;;;;;;;5088974;28;20196;-71
2023/06/18 03:20:48;;;;;;;22.83;16.67;;;;;;;;;;5083312;28;20200;-71
2023/06/18 03:23:14;;;;;;;22.67;16.35;;;;;;;;;;5082747;28;20183;-71
2023/06/18 03:25:39;;;;;;;22.95;16.58;;;;;;;;;;5088136;28;20216;-71
2023/06/18 03:28:05;;;;;;;24.25;17.23;;;;;;;;;;5079190;28;20172;-71
2023/06/18 03:30:31;;;;;;;20.63;16.25;;;;;;;;;;5087304;28;20180;-71
2023/06/18 03:32:58;;;;;;;23.58;16.83;;;;;;;;;;5087832;28;20201;-71
2023/06/18 03:35:24;;;;;;;24.10;16.65;;;;;;;;;;5083575;28;20885;-71
2023/06/18 03:37:49;;;;;;;22.30;16.70;;;;;;;;;;5089177;28;20211;-70
2023/06/18 03:40:15;;;;;;;24.10;17.00;;;;;;;;;;5082866;28;20242;-71
2023/06/18 03:42:41;;;;;;;21.90;16.88;;;;;;;;;;5082578;28;20184;-71
2023/06/18 03:45:06;;;;;;;25.38;16.40;;;;;;;;;;5078388;28;20628;-70
2023/06/18 03:47:32;;;;;;;23.80;16.40;;;;;;;;;;5079122;28;20185;-70
2023/06/18 03:49:57;;;;;;;26.00;16.77;;;;;;;;;;5087951;28;20266;-70
2023/06/18 03:52:23;;;;;;;20.77;16.05;;;;;;;;;;5090312;28;20615;-70
2023/06/18 03:54:48;;;;;;;24.17;16.55;;;;;;;;;;5075621;28;20199;-70
2023/06/18 03:57:13;;;;;;;21.20;16.45;;;;;;;;;;5073948;28;20644;-70
2023/06/18 03:59:39;;;;;;;26.52;17.40;;;;;;;;;;5076510;28;20227;-70
2023/06/18 04:02:05;;;;;;;23.00;16.05;;;;;;;;;;5089168;28;20204;-70
2023/06/18 04:04:30;;;;;;;22.77;15.48;;;;;;;;;;5079587;28;20748;-70
2023/06/18 04:06:56;;;;;;;22.10;15.63;;;;;;;;;;5089171;28;20678;-70
2023/06/18 04:09:21;;;;;;;23.50;16.08;;;;;;;;;;5089168;28;20245;-70
2023/06/18 04:11:47;;;;;;;20.77;15.52;;;;;;;;;;5085547;28;20215;-71
2023/06/18 04:14:13;;;;;;;21.98;15.50;;;;;;;;;;5073362;28;20256;-70
2023/06/18 04:16:38;;;;;;;22.77;15.80;;;;;;;;;;5085399;28;20677;-70
2023/06/18 04:19:04;;;;;;;23.38;16.50;;;;;;;;;;5082599;28;20193;-70
2023/06/18 04:21:29;;;;;;;21.38;15.55;;;;;;;;;;5071915;28;20267;-69
2023/06/18 04:23:54;;;;;;;25.38;16.20;;;;;;;;;;5073372;28;20184;-70
2023/06/18 04:26:21;;;;;;;20.98;15.88;;;;;;;;;;5079120;28;20644;-70
2023/06/18 04:28:46;;;;;;;22.15;17.00;;;;;;;;;;5082622;28;20183;-70
2023/06/18 04:31:12;;;;;;;22.50;16.95;;;;;;;;;;5080892;28;20693;-69
2023/06/18 04:33:37;;;;;;;21.63;16.15;;;;;;;;;;5082513;28;20207;-70
2023/06/18 04:36:03;;;;;;;22.33;16.05;;;;;;;;;;5084279;28;20195;-69
2023/06/18 04:38:28;;;;;;;21.35;15.40;;;;;;;;;;5073799;28;20207;-71
2023/06/18 04:40:54;;;;;;;21.55;16.17;;;;;;;;;;5068064;28;20261;-70
2023/06/18 04:43:19;;;;;;;21.92;16.17;;;;;;;;;;5084574;28;20296;-71
2023/06/18 04:45:46;;;;;;;22.45;15.88;;;;;;;;;;5077701;28;20211;-71
2023/06/18 04:48:12;;;;;;;20.10;15.90;;;;;;;;;;5088310;28;20903;-71
2023/06/18 04:50:39;;;;;;;21.55;15.60;;;;;;;;;;5085843;28;20279;-71
2023/06/18 04:53:04;;;;;;;21.27;16.60;;;;;;;;;;5089215;28;20184;-71
2023/06/18 04:55:29;;;;;;;19.80;14.75;;;;;;;;;;5085386;28;20236;-71
2023/06/18 04:57:55;;;;;;;20.98;16.13;;;;;;;;;;5068188;28;20272;-71
2023/06/18 05:00:21;;;;;;;22.00;16.52;;;;;;;;;;5077901;28;20190;-71
2023/06/18 05:02:47;;;;;;;24.30;17.13;;;;;;;;;;5086067;28;20267;-71
2023/06/18 05:05:12;;;;;;;25.85;16.65;;;;;;;;;;5073240;28;20287;-71
2023/06/18 05:07:38;;;;;;;21.20;16.55;;;;;;;;;;5072487;28;20184;-71
2023/06/18 05:10:04;;;;;;;25.85;17.17;;;;;;;;;;5069875;28;20557;-71
2023/06/18 05:12:29;;;;;;;24.73;16.75;;;;;;;;;;5072973;28;20197;-71
2023/06/18 05:14:55;;;;;;;22.52;17.33;;;;;;;;;;5072742;28;20372;-71
2023/06/18 05:17:20;;;;;;;25.05;17.02;;;;;;;;;;5087303;28;20237;-71
2023/06/18 05:19:46;;;;;;;24.52;17.35;;;;;;;;;;5081621;28;20184;-71
2023/06/18 05:22:11;;;;;;;27.73;17.45;;;;;;;;;;5080053;28;20184;-71
2023/06/18 05:24:36;;;;;;;23.08;17.58;;;;;;;;;;5076416;28;20197;-71
2023/06/18 05:27:02;;;;;;;25.77;16.88;;;;;;;;;;5071469;28;20224;-70
2023/06/18 05:29:27;;;;;;;27.02;17.10;;;;;;;;;;5069056;28;20199;-70
2023/06/18 05:31:53;;;;;;;22.75;16.80;;;;;;;;;;5075889;28;20705;-70
2023/06/18 05:34:18;;;;;;;20.80;17.00;;;;;;;;;;5088196;28;20231;-70
2023/06/18 05:36:43;;;;;;;28.42;18.02;;;;;;;;;;5080921;28;20227;-73
2023/06/18 05:39:10;;;;;;;22.38;16.92;;;;;;;;;;5069593;28;20228;-73
2023/06/18 05:41:35;;;;;;;27.38;17.30;;;;;;;;;;5078492;28;20676;-70
2023/06/18 05:44:01;;;;;;;25.90;16.92;;;;;;;;;;5074020;28;20256;-70
2023/06/18 05:46:26;;;;;;;27.50;17.50;;;;;;;;;;5075109;28;20736;-70
2023/06/18 05:48:52;;;;;;;22.52;17.05;;;;;;;;;;5083178;28;20188;-70
2023/06/18 05:51:17;;;;;;;24.45;17.10;;;;;;;;;;5079054;28;20192;-70
2023/06/18 05:53:42;;;;;;;25.67;17.70;;;;;;;;;;5086870;28;20299;-70
2023/06/18 05:56:08;;;;;;;22.10;16.38;;;;;;;;;;5081242;28;20177;-70
2023/06/18 05:58:33;;;;;;;22.33;18.30;;;;;;;;;;5076464;28;20643;-70
2023/06/18 06:00:59;;;;;;;27.77;17.55;;;;;;;;;;5086160;28;20235;-70
2023/06/18 06:03:25;;;;;;;25.38;17.55;;;;;;;;;;5084547;28;20625;-70
2023/06/18 06:05:50;;;;;;;24.95;17.38;;;;;;;;;;5079146;28;20200;-70
2023/06/18 06:08:16;;;;;;;24.27;17.73;;;;;;;;;;5085941;28;20636;-70
2023/06/18 06:10:41;;;;;;;28.35;18.13;;;;;;;;;;5084213;28;20253;-70
2023/06/18 06:13:07;;;;;;;26.23;17.40;;;;;;;;;;5076485;28;20215;-70
2023/06/18 06:15:32;;;;;;;24.20;17.20;;;;;;;;;;5065549;28;20210;-70
2023/06/18 06:17:57;;;;;;;22.30;17.05;;;;;;;;;;5088383;28;20617;-71
2023/06/18 06:20:23;;;;;;;22.58;17.13;;;;;;;;;;5083631;28;20218;-71
2023/06/18 06:22:49;;;;;;;28.08;17.83;;;;;;;;;;5078061;28;20200;-70
2023/06/18 06:25:15;;;;;;;21.52;16.90;;;;;;;;;;5082772;28;20223;-71
2023/06/18 06:27:42;;;;;;;23.63;16.58;;;;;;;;;;5082936;28;20193;-71
2023/06/18 06:30:09;;;;;;;25.17;16.90;;;;;;;;;;5081345;28;20241;-71
2023/06/18 06:32:35;;;;;;;21.75;16.65;;;;;;;;;;5086170;28;20192;-71
2023/06/18 06:35:02;;;;;;;24.58;16.55;;;;;;;;;;5089220;28;20653;-70
2023/06/18 06:37:27;;;;;;;19.33;16.02;;;;;;;;;;5091644;28;20252;-70
2023/06/18 06:39:52;;;;;;;20.25;16.55;;;;;;;;;;5089944;28;20310;-70
2023/06/18 06:42:18;;;;;;;20.90;16.90;;;;;;;;;;5084878;28;20211;-70
2023/06/18 06:44:43;;;;;;;22.08;15.88;;;;;;;;;;5086327;28;20211;-70
2023/06/18 06:47:09;;;;;;;21.58;16.30;;;;;;;;;;5091547;28;20507;-70
2023/06/18 06:49:34;;;;;;;22.13;16.85;;;;;;;;;;5089110;28;20196;-70
2023/06/18 06:51:59;;;;;;;21.42;16.27;;;;;;;;;;5078356;28;20189;-70
2023/06/18 06:54:25;;;;;;;23.95;17.35;;;;;;;;;;5085994;28;20188;-70
2023/06/18 06:56:50;;;;;;;23.48;15.88;;;;;;;;;;5078004;28;20220;-70
2023/06/18 06:59:16;;;;;;;22.45;15.73;;;;;;;;;;5090275;28;20659;-71
2023/06/18 07:01:43;;;;;;;21.52;16.55;;;;;;;;;;5079723;28;20758;-70
2023/06/18 07:04:09;;;;;;;22.75;15.82;;;;;;;;;;5088568;28;20188;-71
2023/06/18 07:06:35;;;;;;;23.48;16.17;;;;;;;;;;5079747;28;20406;-69
2023/06/18 07:09:02;;;;;;;20.85;15.07;;;;;;;;;;5070869;28;20184;-70
2023/06/18 07:11:28;;;;;;;20.40;16.45;;;;;;;;;;5077049;28;20196;-70
2023/06/18 07:13:53;;;;;;;21.35;15.18;;;;;;;;;;5073650;28;20283;-70
2023/06/18 07:16:18;;;;;;;19.80;14.88;;;;;;;;;;5078258;28;20198;-70
2023/06/18 07:18:44;;;;;;;21.17;15.38;;;;;;;;;;5077634;28;20535;-70
2023/06/18 07:21:09;;;;;;;20.50;14.07;;;;;;;;;;5073262;28;20211;-70
2023/06/18 07:23:35;;;;;;;17.35;14.68;;;;;;;;;;5082556;28;20196;-70
2023/06/18 07:26:00;;;;;;;22.58;15.00;;;;;;;;;;5082251;28;20193;-70
2023/06/18 07:28:25;;;;;;;17.10;13.93;;;;;;;;;;5081271;28;20233;-70
2023/06/18 07:30:51;;;;;;;18.65;14.80;;;;;;;;;;5076190;28;20192;-71
2023/06/18 07:33:16;;;;;;;18.60;14.00;;;;;;;;;;5090188;28;20274;-70
2023/06/18 07:35:41;;;;;;;21.80;13.93;;;;;;;;;;5076136;28;20181;-70
2023/06/18 07:38:07;;;;;;;22.63;15.20;;;;;;;;;;5085621;28;20272;-69
2023/06/18 07:40:33;;;;;;;23.48;15.00;;;;;;;;;;5069878;28;20277;-69
2023/06/18 07:42:59;;;;;;;20.85;13.70;;;;;;;;;;5081437;28;20203;-70
2023/06/18 07:45:25;;;;;;;18.05;13.50;;;;;;;;;;5077884;28;20208;-70
2023/06/18 07:47:50;;;;;;;18.13;13.93;;;;;;;;;;5089018;28;20192;-69
2023/06/18 07:50:16;;;;;;;15.20;13.07;;;;;;;;;;5082029;28;20224;-70
2023/06/18 07:52:42;;;;;;;20.67;13.48;;;;;;;;;;5080204;28;20655;-69
2023/06/18 07:55:07;;;;;;;18.67;13.32;;;;;;;;;;5070514;28;20566;-70
2023/06/18 07:57:33;;;;;;;15.65;12.98;;;;;;;;;;5076401;28;20274;-69
2023/06/18 07:59:58;;;;;;;16.00;12.90;;;;;;;;;;5073101;28;20234;-69
2023/06/18 08:02:23;;;;;;;17.15;13.60;;;;;;;;;;5078660;28;20230;-70
2023/06/18 08:04:49;;;;;;;17.55;12.73;;;;;;;;;;5070075;28;20212;-70
2023/06/18 08:07:14;;;;;;;18.10;12.77;;;;;;;;;;5075872;28;20195;-70
2023/06/18 08:09:40;;;;;;;17.98;12.85;;;;;;;;;;5078557;28;20200;-70
2023/06/18 08:12:06;;;;;;;16.95;11.13;;;;;;;;;;5082679;28;20267;-71
2023/06/18 08:14:32;;;;;;;13.77;11.35;;;;;;;;;;5086103;28;20192;-71
2023/06/18 08:16:57;;;;;;;12.50;10.80;;;;;;;;;;5079530;28;20609;-71
2023/06/18 08:19:22;;;;;;;13.82;11.32;;;;;;;;;;5069480;28;20187;-71
2023/06/18 08:21:49;;;;;;;17.48;10.50;;;;;;;;;;5080170;28;20686;-71
2023/06/18 08:24:14;;;;;;;14.80;10.77;;;;;;;;;;5083392;28;20208;-71
2023/06/18 08:26:40;;;;;;;13.90;10.77;;;;;;;;;;5075570;28;20683;-71
2023/06/18 08:29:05;;;;;;;14.73;11.52;;;;;;;;;;5081240;28;20238;-71
2023/06/18 08:31:31;;;;;;;14.60;10.52;;;;;;;;;;5071958;28;20214;-72
2023/06/18 08:33:56;;;;;;;13.55;10.38;;;;;;;;;;5076410;28;20192;-71
2023/06/18 08:36:22;;;;;;;15.20;10.70;;;;;;;;;;5083422;28;20869;-71
2023/06/18 08:38:48;;;;;;;11.82;9.55;;;;;;;;;;5067863;28;20242;-70
2023/06/18 08:41:14;;;;;;;16.15;11.13;;;;;;;;;;5069108;28;20632;-70
2023/06/18 08:43:39;;;;;;;15.05;10.00;;;;;;;;;;5080058;28;20618;-71
2023/06/18 08:46:10;;;;;;;13.70;10.50;;;;;;;;;;5069910;28;20200;-70
2023/06/18 08:48:42;;;;;;;11.63;10.45;;;;;;;;;;5077113;28;20192;-71
2023/06/18 08:51:09;;;;;;;11.88;10.32;;;;;;;;;;5071916;28;20238;-71
2023/06/18 08:53:49;;;;;;;14.48;10.57;;;;;;;;;;5087066;28;20208;-70
2023/06/18 08:56:17;;;;;;;12.00;9.27;;;;;;;;;;5069782;28;20710;-71
2023/06/18 08:58:50;;;;;;;13.07;10.32;;;;;;;;;;5087743;28;20263;-71
2023/06/18 09:01:16;;;;;;;11.13;9.80;;;;;;;;;;5076023;28;20388;-72
2023/06/18 09:03:42;;;;;;;12.52;9.40;;;;;;;;;;5078947;28;20189;-72
2023/06/18 09:06:09;;;;;;;11.65;9.23;;;;;;;;;;5079528;28;20587;-72
2023/06/18 09:08:36;;;;;;;12.35;9.25;;;;;;;;;;5083534;28;20424;-72
2023/06/18 09:11:03;;;;;;;10.63;9.63;;;;;;;;;;5067821;28;20180;-72
2023/06/18 09:13:28;;;;;;;11.93;9.20;;;;;;;;;;5085828;28;20211;-71
2023/06/18 09:15:53;;;;;;;12.18;9.55;;;;;;;;;;5088435;28;20183;-70
2023/06/18 09:18:21;;;;;;;9.80;7.95;;;;;;;;;;5077286;28;20188;-71
2023/06/18 09:20:47;;;;;;;12.57;9.00;;;;;;;;;;4384208;28;10000807;-71
2023/06/18 09:23:12;;;;;;;11.13;8.55;;;;;;;;;;5085478;28;20188;-71
2023/06/18 09:25:38;;;;;;;11.50;8.07;;;;;;;;;;5082442;28;20212;-71
2023/06/18 09:28:03;;;;;;;10.55;8.25;;;;;;;;;;5085599;28;20192;-71
2023/06/18 09:30:29;;;;;;;10.20;7.93;;;;;;;;;;5084121;28;20663;-71
2023/06/18 09:32:57;;;;;;;9.00;8.10;;;;;;;;;;5076732;28;20212;-71
2023/06/18 09:35:23;;;;;;;11.73;8.60;;;;;;;;;;5065358;28;20221;-71
2023/06/18 09:37:49;;;;;;;11.00;8.52;;;;;;;;;;5077326;28;20196;-71
2023/06/18 09:40:22;;;;;;;10.00;8.15;;;;;;;;;;5080451;28;20474;-71
2023/06/18 09:42:48;;;;;;;9.48;8.13;;;;;;;;;;5074841;28;20191;-71
2023/06/18 09:45:15;;;;;;;10.48;8.57;;;;;;;;;;5083711;28;20813;-71
2023/06/18 09:47:43;;;;;;;8.75;7.72;;;;;;;;;;5079605;28;20236;-71
2023/06/18 09:50:10;;;;;;;9.23;7.80;;;;;;;;;;5081336;28;20664;-70
2023/06/18 09:52:44;;;;;;;8.65;7.85;;;;;;;;;;5073104;28;20898;-70
2023/06/18 09:55:27;;;;;;;10.77;8.15;;;;;;;;;;5064697;28;20191;-71
2023/06/18 09:57:52;;;;;;;8.80;7.63;;;;;;;;;;5077061;28;20625;-71
2023/06/18 10:00:19;;;;;;;8.10;7.30;;;;;;;;;;5075234;28;20651;-71
2023/06/18 10:02:44;;;;;;;10.48;8.02;;;;;;;;;;5068997;28;20191;-72
2023/06/18 10:05:10;;;;;;;9.98;8.52;;;;;;;;;;5076316;28;20671;-71
2023/06/18 10:07:39;;;;;;;9.10;8.20;;;;;;;;;;5073218;28;20193;-71
2023/06/18 10:10:09;;;;;;;10.60;7.97;;;;;;;;;;5079461;28;20516;-71
2023/06/18 10:12:35;;;;;;;9.38;8.02;;;;;;;;;;5083757;28;20199;-71
2023/06/18 10:15:01;;;;;;;8.38;7.57;;;;;;;;;;5088190;28;20188;-70
2023/06/18 10:17:34;;;;;;;9.65;7.85;;;;;;;;;;5076490;28;20464;-69
2023/06/18 10:20:04;;;;;;;8.15;7.35;;;;;;;;;;5084308;28;20678;-72
2023/06/18 10:22:36;;;;;;;8.90;7.43;;;;;;;;;;5080258;28;20248;-71
2023/06/18 10:25:03;;;;;;;8.90;7.05;;;;;;;;;;5080182;28;20219;-70
2023/06/18 10:27:29;;;;;;;8.82;7.20;;;;;;;;;;5077042;28;20223;-70
2023/06/18 10:29:57;;;;;;;9.18;7.80;;;;;;;;;;5085101;28;20192;-71
2023/06/18 10:32:23;;;;;;;8.93;8.02;;;;;;;;;;5085011;28;20815;-73
2023/06/18 10:34:51;;;;;;;7.93;7.13;;;;;;;;;;5086626;28;20185;-70
2023/06/18 10:37:17;;;;;;;10.00;8.25;;;;;;;;;;5082396;28;20670;-71
2023/06/18 10:39:43;;;;;;;9.60;8.60;;;;;;;;;;5087519;28;20699;-72
2023/06/18 10:42:16;;;;;;;9.23;7.97;;;;;;;;;;5084458;28;20231;-73
2023/06/18 10:44:47;;;;;;;11.20;8.65;;;;;;;;;;5081083;28;20270;-71
2023/06/18 10:47:18;;;;;;;9.07;8.18;;;;;;;;;;5061748;28;20542;-73
2023/06/18 10:50:03;;;;;;;8.82;7.95;;;;;;;;;;5079727;28;20268;-70
2023/06/18 10:52:30;;;;;;;10.57;8.18;;;;;;;;;;5084297;28;20207;-70
2023/06/18 10:55:27;;;;;;;10.25;8.52;;;;;;;;;;5087095;28;20183;-73
2023/06/18 10:58:03;;;;;;;10.85;8.60;;;;;;;;;;5077933;28;20272;-72
2023/06/18 11:00:40;;;;;;;9.75;7.85;;;;;;;;;;5083345;28;20785;-71
2023/06/18 11:03:13;;;;;;;10.52;7.40;;;;;;;;;;5085751;28;20194;-70
2023/06/18 11:05:46;;;;;;;12.32;8.63;;;;;;;;;;5066372;28;20413;-72
2023/06/18 11:08:13;;;;;;;12.23;8.63;;;;;;;;;;5077070;28;20187;-72
2023/06/18 11:10:49;;;;;;;12.05;8.50;;;;;;;;;;5075272;28;20659;-71
2023/06/18 11:13:15;;;;;;;10.10;7.75;;;;;;;;;;5080999;28;20194;-71
2023/06/18 11:16:02;;;;;;;9.15;7.50;;;;;;;;;;5080921;28;20662;-70
2023/06/18 11:18:29;;;;;;;8.73;7.75;;;;;;;;;;5079116;28;20222;-71
2023/06/18 11:20:56;;;;;;;7.68;6.93;;;;;;;;;;5068116;28;20192;-71
2023/06/18 11:23:23;;;;;;;8.10;7.30;;;;;;;;;;5074290;28;20551;-70
2023/06/18 11:25:49;;;;;;;7.93;7.10;;;;;;;;;;5088860;28;20214;-70
2023/06/18 11:28:15;;;;;;;7.10;6.40;;;;;;;;;;5083441;28;20191;-69
2023/06/18 11:31:05;;;;;;;7.40;6.38;;;;;;;;;;5081290;28;20569;-72
2023/06/18 11:33:31;;;;;;;9.68;7.53;;;;;;;;;;5080059;28;20191;-71
2023/06/18 11:36:06;;;;;;;7.65;6.95;;;;;;;;;;5088316;28;20180;-71
2023/06/18 11:38:32;;;;;;;7.07;6.38;;;;;;;;;;5070040;28;20279;-72
2023/06/18 11:40:57;;;;;;;7.85;6.43;;;;;;;;;;5070243;28;20299;-73
2023/06/18 11:43:23;;;;;;;7.38;6.68;;;;;;;;;;5081400;28;20191;-71
2023/06/18 11:45:53;;;;;;;7.85;7.18;;;;;;;;;;5084313;28;20251;-72
2023/06/18 11:48:22;;;;;;;7.50;6.68;;;;;;;;;;5086801;28;20187;-71
2023/06/18 11:50:53;;;;;;;8.85;7.13;;;;;;;;;;5077233;28;20660;-71
2023/06/18 11:53:22;;;;;;;8.57;7.78;;;;;;;;;;5070047;28;20188;-70
2023/06/18 11:55:47;;;;;;;8.23;7.10;;;;;;;;;;5078809;28;20648;-71
2023/06/18 11:58:15;;;;;;;8.30;7.15;;;;;;;;;;5076508;28;20191;-70
2023/06/18 12:00:40;;;;;;;8.27;7.47;;;;;;;;;;5077495;28;20264;-71
2023/06/18 12:03:06;;;;;;;8.77;7.43;;;;;;;;;;5078364;28;20199;-71
2023/06/18 12:05:39;;;;;;;8.38;7.57;;;;;;;;;;5086166;28;20200;-73
2023/06/18 12:08:12;;;;;;;7.97;7.22;;;;;;;;;;5087617;28;20682;-72
2023/06/18 12:10:38;;;;;;;7.80;7.00;;;;;;;;;;5072607;28;20458;-72
2023/06/18 12:13:23;;;;;;;8.80;7.85;;;;;;;;;;5081422;28;20199;-70
2023/06/18 12:16:01;;;;;;;8.52;7.60;;;;;;;;;;5075406;28;20186;-71
2023/06/18 12:18:37;;;;;;;10.93;8.20;;;;;;;;;;5080394;28;20217;-70
2023/06/18 12:21:03;;;;;;;8.23;7.43;;;;;;;;;;5076630;28;20248;-73
2023/06/18 12:23:29;;;;;;;9.23;7.70;;;;;;;;;;5089030;28;20683;-71
2023/06/18 12:25:54;;;;;;;8.23;7.53;;;;;;;;;;5074094;28;20203;-72
2023/06/18 12:28:24;;;;;;;8.80;7.43;;;;;;;;;;5079164;28;20275;-72
2023/06/18 12:30:52;;;;;;;8.88;7.30;;;;;;;;;;5085770;28;20231;-71
2023/06/18 12:33:19;;;;;;;7.60;6.90;;;;;;;;;;5086917;28;20191;-73
2023/06/18 12:35:45;;;;;;;9.35;7.13;;;;;;;;;;5090120;28;20191;-71
2023/06/18 12:38:11;;;;;;;7.72;7.03;;;;;;;;;;5088402;28;20226;-72
2023/06/18 12:40:51;;;;;;;10.43;6.93;;;;;;;;;;5086495;28;20729;-73
2023/06/18 12:43:18;;;;;;;8.63;7.57;;;;;;;;;;5074054;28;20196;-71
2023/06/18 12:45:47;;;;;;;9.80;7.80;;;;;;;;;;5089440;28;20222;-73
2023/06/18 12:48:15;;;;;;;8.65;7.03;;;;;;;;;;5084954;28;20283;-71
2023/06/18 12:51:02;;;;;;;9.32;7.10;;;;;;;;;;5078489;28;20197;-71
2023/06/18 12:53:28;;;;;;;8.00;7.10;;;;;;;;;;5071218;28;20751;-72
2023/06/18 12:55:55;;;;;;;7.80;7.00;;;;;;;;;;5076518;28;20177;-71
2023/06/18 12:58:23;;;;;;;10.38;7.70;;;;;;;;;;5073384;28;20196;-71
2023/06/18 13:00:55;;;;;;;9.38;7.25;;;;;;;;;;5089419;28;20239;-71
2023/06/18 13:03:22;;;;;;;9.30;7.78;;;;;;;;;;5087634;28;20195;-70
2023/06/18 13:05:48;;;;;;;7.63;6.95;;;;;;;;;;5089558;28;20242;-71
2023/06/18 13:08:19;;;;;;;10.27;8.00;;;;;;;;;;5073977;28;20208;-71
2023/06/18 13:10:49;;;;;;;10.30;7.95;;;;;;;;;;5078583;28;20232;-72
2023/06/18 13:13:18;;;;;;;10.63;7.47;;;;;;;;;;5074617;28;20267;-74
2023/06/18 13:15:45;;;;;;;10.38;7.40;;;;;;;;;;5082118;28;20176;-73
2023/06/18 13:18:12;;;;;;;9.18;8.02;;;;;;;;;;5080900;28;20219;-73
2023/06/18 13:20:39;;;;;;;8.68;7.78;;;;;;;;;;5081360;28;20655;-73
2023/06/18 13:23:04;;;;;;;8.80;7.90;;;;;;;;;;5068992;28;20699;-74
2023/06/18 13:25:30;;;;;;;8.45;7.43;;;;;;;;;;5072727;28;20196;-72
2023/06/18 13:27:56;;;;;;;10.07;7.90;;;;;;;;;;5079111;28;20267;-72
2023/06/18 13:30:21;;;;;;;8.93;8.13;;;;;;;;;;5069972;28;20326;-72
2023/06/18 13:32:46;;;;;;;8.60;7.60;;;;;;;;;;5089377;28;20658;-72
2023/06/18 13:35:12;;;;;;;8.35;7.60;;;;;;;;;;5085417;28;20631;-71
2023/06/18 13:37:38;;;;;;;9.00;7.88;;;;;;;;;;5077305;28;20222;-71
2023/06/18 13:40:04;;;;;;;11.43;7.90;;;;;;;;;;5074584;28;20223;-73
2023/06/18 13:42:29;;;;;;;8.98;8.07;;;;;;;;;;5079653;28;20187;-71
2023/06/18 13:44:57;;;;;;;8.80;7.55;;;;;;;;;;5082471;28;20290;-71
2023/06/18 13:47:22;;;;;;;11.40;8.68;;;;;;;;;;5086249;28;20694;-72
2023/06/18 13:49:48;;;;;;;9.75;7.85;;;;;;;;;;5080397;28;20237;-72
2023/06/18 13:52:14;;;;;;;10.73;7.38;;;;;;;;;;5072515;28;20544;-72
2023/06/18 13:54:39;;;;;;;10.57;7.40;;;;;;;;;;5072866;28;20216;-72
2023/06/18 13:57:05;;;;;;;9.60;7.97;;;;;;;;;;5076073;28;20241;-73
2023/06/18 13:59:30;;;;;;;10.88;7.97;;;;;;;;;;5065573;28;20318;-71
2023/06/18 14:01:56;;;;;;;9.90;7.47;;;;;;;;;;5074080;28;20211;-71
2023/06/18 14:04:23;;;;;;;8.15;7.35;;;;;;;;;;5075990;28;20221;-72
2023/06/18 14:06:48;;;;;;;12.30;8.63;;;;;;;;;;5074119;28;20272;-71
2023/06/18 14:09:14;;;;;;;10.02;8.35;;;;;;;;;;5073329;28;20638;-71
2023/06/18 14:11:40;;;;;;;10.90;8.52;;;;;;;;;;5080525;28;20207;-71
2023/06/18 14:14:06;;;;;;;9.35;8.25;;;;;;;;;;5071587;28;20180;-71
2023/06/18 14:16:31;;;;;;;9.27;8.23;;;;;;;;;;5071621;28;20581;-72
2023/06/18 14:18:57;;;;;;;8.90;8.00;;;;;;;;;;5071046;28;20188;-72
2023/06/18 14:21:23;;;;;;;9.20;8.30;;;;;;;;;;5068980;28;20565;-71
2023/06/18 14:23:51;;;;;;;12.05;7.97;;;;;;;;;;5068675;28;20204;-71
2023/06/18 14:26:17;;;;;;;14.43;8.07;;;;;;;;;;5071426;28;20215;-71